BAW790E EGLL-ESGG
Flight info
| Callsign | BAW790E |
|---|---|
| Flight time | 1h 29m |
| Altitude | 37000 |
| Route | BPK Q295 MATCH P144 SAMHO DCT LARGA DCT SOPTO DCT AAL N607 MAKUR |
| Aircraft | A320/M-SDE3FGHIRWY/LB1 |
Departure
| Time | 2026-05-07 16:19 |
|---|---|
| Airport | London Heathrow Airport (EGLL) |
Arrival
| Time | 2026-05-07 17:49 |
|---|---|
| Airport | Göteborg Landvetter Airport (ESGG) |
| Time | Latitude | Longitude | Altitude | Speed | Heading |
|---|---|---|---|---|---|
| 2026-05-07 15:37 | 51.47233 | -0.48585 | 91 ft | 0 kts | 270° |
| 2026-05-07 16:05 | 51.47233 | -0.48552 | 87 ft | 3 kts | 270° |
| 2026-05-07 16:06 | 51.47233 | -0.48519 | 89 ft | 2 kts | 269° |
| 2026-05-07 16:06 | 51.47236 | -0.48486 | 90 ft | 3 kts | 224° |
| 2026-05-07 16:06 | 51.47255 | -0.48473 | 90 ft | 2 kts | 180° |
| 2026-05-07 16:06 | 51.47272 | -0.48473 | 86 ft | 0 kts | 180° |
| 2026-05-07 16:10 | 51.47262 | -0.48473 | 89 ft | 2 kts | 180° |
| 2026-05-07 16:11 | 51.47239 | -0.48473 | 86 ft | 5 kts | 180° |
| 2026-05-07 16:11 | 51.47190 | -0.48472 | 87 ft | 9 kts | 180° |
| 2026-05-07 16:11 | 51.47123 | -0.48472 | 88 ft | 11 kts | 180° |
| 2026-05-07 16:11 | 51.47042 | -0.48471 | 86 ft | 13 kts | 180° |
| 2026-05-07 16:12 | 51.46954 | -0.48470 | 88 ft | 11 kts | 179° |
| 2026-05-07 16:12 | 51.46874 | -0.48469 | 88 ft | 13 kts | 179° |
| 2026-05-07 16:12 | 51.46825 | -0.48468 | 86 ft | 0 kts | 179° |
| 2026-05-07 16:13 | 51.46819 | -0.48468 | 86 ft | 2 kts | 179° |
| 2026-05-07 16:13 | 51.46774 | -0.48468 | 86 ft | 12 kts | 181° |
| 2026-05-07 16:13 | 51.46741 | -0.48577 | 86 ft | 13 kts | 269° |
| 2026-05-07 16:14 | 51.46729 | -0.48723 | 88 ft | 14 kts | 232° |
| 2026-05-07 16:14 | 51.46635 | -0.48751 | 86 ft | 15 kts | 187° |
| 2026-05-07 16:14 | 51.46597 | -0.48769 | 89 ft | 0 kts | 198° |
| 2026-05-07 16:15 | 51.46590 | -0.48773 | 88 ft | 4 kts | 198° |
| 2026-05-07 16:15 | 51.46532 | -0.48785 | 86 ft | 12 kts | 167° |
| 2026-05-07 16:15 | 51.46477 | -0.48656 | 86 ft | 11 kts | 90° |
| 2026-05-07 16:16 | 51.46478 | -0.48586 | 86 ft | 0 kts | 89° |
| 2026-05-07 16:18 | 51.46478 | -0.48584 | 86 ft | 1 kts | 89° |
| 2026-05-07 16:18 | 51.46481 | -0.48292 | 88 ft | 60 kts | 89° |
| 2026-05-07 16:18 | 51.46482 | -0.47286 | 87 ft | 117 kts | 90° |
| 2026-05-07 16:19 | 51.46488 | -0.45736 | 89 ft | 159 kts | 89° |
| 2026-05-07 16:19 | 51.46512 | -0.43969 | 629 ft | 158 kts | 88° |
| 2026-05-07 16:19 | 51.46561 | -0.42187 | 1209 ft | 162 kts | 82° |
| 2026-05-07 16:19 | 51.46992 | -0.40454 | 1522 ft | 178 kts | 52° |
| 2026-05-07 16:20 | 51.47833 | -0.38817 | 1790 ft | 200 kts | 51° |
| 2026-05-07 16:20 | 51.48782 | -0.37012 | 2052 ft | 226 kts | 50° |
| 2026-05-07 16:20 | 51.49873 | -0.34959 | 2308 ft | 256 kts | 49° |
| 2026-05-07 16:20 | 51.51067 | -0.32705 | 2866 ft | 274 kts | 50° |
| 2026-05-07 16:21 | 51.52208 | -0.30348 | 3894 ft | 270 kts | 60° |
| 2026-05-07 16:21 | 51.52921 | -0.27581 | 4868 ft | 268 kts | 70° |
| 2026-05-07 16:21 | 51.53530 | -0.24733 | 5751 ft | 270 kts | 72° |
| 2026-05-07 16:21 | 51.54115 | -0.21854 | 6629 ft | 272 kts | 72° |
| 2026-05-07 16:22 | 51.54965 | -0.19126 | 7364 ft | 279 kts | 48° |
| 2026-05-07 16:22 | 51.56581 | -0.17399 | 8078 ft | 285 kts | 21° |
| 2026-05-07 16:22 | 51.58499 | -0.16521 | 8872 ft | 289 kts | 8° |
| 2026-05-07 16:22 | 51.60523 | -0.16446 | 9624 ft | 293 kts | 358° |
| 2026-05-07 16:23 | 51.62581 | -0.16418 | 10313 ft | 299 kts | 5° |
| 2026-05-07 16:23 | 51.64714 | -0.15854 | 10552 ft | 322 kts | 13° |
| 2026-05-07 16:23 | 51.66948 | -0.14875 | 10747 ft | 343 kts | 17° |
| 2026-05-07 16:23 | 51.69250 | -0.13681 | 11268 ft | 350 kts | 20° |
| 2026-05-07 16:24 | 51.71429 | -0.11900 | 11891 ft | 354 kts | 36° |
| 2026-05-07 16:24 | 51.73273 | -0.09271 | 12540 ft | 356 kts | 50° |
| 2026-05-07 16:24 | 51.74277 | -0.07173 | 12973 ft | 357 kts | 58° |
| 2026-05-07 16:24 | 51.75374 | -0.03590 | 13630 ft | 358 kts | 73° |
| 2026-05-07 16:25 | 51.75895 | 0.00333 | 14231 ft | 359 kts | 84° |
| 2026-05-07 16:25 | 51.76237 | 0.04344 | 14815 ft | 362 kts | 84° |
| 2026-05-07 16:25 | 51.76680 | 0.09724 | 15541 ft | 368 kts | 84° |
| 2026-05-07 16:25 | 51.77013 | 0.13831 | 16086 ft | 371 kts | 84° |
| 2026-05-07 16:26 | 51.77240 | 0.16634 | 16450 ft | 374 kts | 83° |
| 2026-05-07 16:26 | 51.77801 | 0.20764 | 16983 ft | 379 kts | 73° |
| 2026-05-07 16:26 | 51.78811 | 0.24723 | 17527 ft | 384 kts | 62° |
| 2026-05-07 16:26 | 51.80264 | 0.28370 | 18079 ft | 388 kts | 51° |
| 2026-05-07 16:27 | 51.82114 | 0.31563 | 18613 ft | 392 kts | 44° |
| 2026-05-07 16:27 | 51.84078 | 0.34634 | 19140 ft | 395 kts | 44° |
| 2026-05-07 16:27 | 51.86061 | 0.37735 | 19675 ft | 398 kts | 44° |
| 2026-05-07 16:27 | 51.88060 | 0.40864 | 20212 ft | 401 kts | 44° |
| 2026-05-07 16:28 | 51.90042 | 0.43976 | 20734 ft | 404 kts | 44° |
| 2026-05-07 16:28 | 51.92067 | 0.47157 | 21243 ft | 407 kts | 44° |
| 2026-05-07 16:28 | 51.94102 | 0.50354 | 21744 ft | 410 kts | 44° |
| 2026-05-07 16:28 | 51.96158 | 0.53593 | 22258 ft | 412 kts | 44° |
| 2026-05-07 16:29 | 51.98218 | 0.56847 | 22734 ft | 415 kts | 44° |
| 2026-05-07 16:29 | 52.00290 | 0.60130 | 23209 ft | 418 kts | 44° |
| 2026-05-07 16:29 | 52.02417 | 0.63379 | 23660 ft | 421 kts | 39° |
| 2026-05-07 16:29 | 52.04777 | 0.66198 | 24047 ft | 423 kts | 34° |
| 2026-05-07 16:30 | 52.07190 | 0.68939 | 24450 ft | 425 kts | 34° |
| 2026-05-07 16:30 | 52.09625 | 0.71710 | 24838 ft | 427 kts | 34° |
| 2026-05-07 16:30 | 52.12052 | 0.74486 | 25218 ft | 429 kts | 34° |
| 2026-05-07 16:30 | 52.14499 | 0.77289 | 25588 ft | 431 kts | 34° |
| 2026-05-07 16:31 | 52.16956 | 0.80107 | 25956 ft | 433 kts | 35° |
| 2026-05-07 16:31 | 52.19421 | 0.82939 | 26329 ft | 435 kts | 35° |
| 2026-05-07 16:31 | 52.21903 | 0.85800 | 26669 ft | 437 kts | 35° |
| 2026-05-07 16:31 | 52.24389 | 0.88669 | 27027 ft | 439 kts | 35° |
| 2026-05-07 16:32 | 52.26889 | 0.91555 | 27383 ft | 441 kts | 35° |
| 2026-05-07 16:32 | 52.29399 | 0.94451 | 27753 ft | 442 kts | 36° |
| 2026-05-07 16:32 | 52.31917 | 0.97356 | 28176 ft | 443 kts | 36° |
| 2026-05-07 16:32 | 52.34433 | 1.00268 | 28550 ft | 444 kts | 36° |
| 2026-05-07 16:33 | 52.36957 | 1.03197 | 28907 ft | 445 kts | 37° |
| 2026-05-07 16:33 | 52.39445 | 1.06095 | 29262 ft | 446 kts | 37° |
| 2026-05-07 16:33 | 52.41978 | 1.09045 | 29644 ft | 447 kts | 37° |
| 2026-05-07 16:33 | 52.44504 | 1.11992 | 30141 ft | 445 kts | 37° |
| 2026-05-07 16:34 | 52.47023 | 1.14936 | 30563 ft | 443 kts | 37° |
| 2026-05-07 16:34 | 52.49531 | 1.17868 | 30969 ft | 443 kts | 37° |
| 2026-05-07 16:34 | 52.52038 | 1.20799 | 31342 ft | 442 kts | 37° |
| 2026-05-07 16:34 | 52.54539 | 1.23723 | 31779 ft | 440 kts | 37° |
| 2026-05-07 16:35 | 52.57030 | 1.26638 | 32222 ft | 439 kts | 37° |
| 2026-05-07 16:35 | 52.59515 | 1.29553 | 32627 ft | 438 kts | 37° |
| 2026-05-07 16:35 | 52.61988 | 1.32466 | 33013 ft | 437 kts | 37° |
| 2026-05-07 16:35 | 52.64464 | 1.35388 | 33399 ft | 437 kts | 37° |
| 2026-05-07 16:36 | 52.66936 | 1.38306 | 33791 ft | 437 kts | 37° |
| 2026-05-07 16:36 | 52.69403 | 1.41224 | 34153 ft | 436 kts | 37° |
| 2026-05-07 16:36 | 52.71872 | 1.44154 | 34437 ft | 437 kts | 37° |
| 2026-05-07 16:36 | 52.74338 | 1.47086 | 34707 ft | 438 kts | 37° |
| 2026-05-07 16:37 | 52.76812 | 1.50028 | 34961 ft | 438 kts | 37° |
| 2026-05-07 16:37 | 52.79282 | 1.52965 | 35277 ft | 437 kts | 37° |
| 2026-05-07 16:37 | 52.81744 | 1.55894 | 35559 ft | 436 kts | 37° |
| 2026-05-07 16:37 | 52.84178 | 1.58791 | 35787 ft | 437 kts | 37° |
| 2026-05-07 16:38 | 52.86653 | 1.61742 | 36003 ft | 438 kts | 37° |
| 2026-05-07 16:38 | 52.89123 | 1.64697 | 36214 ft | 439 kts | 37° |
| 2026-05-07 16:38 | 52.91610 | 1.67681 | 36417 ft | 441 kts | 37° |
| 2026-05-07 16:38 | 52.94094 | 1.70665 | 36620 ft | 442 kts | 37° |
| 2026-05-07 16:39 | 52.96586 | 1.73662 | 36818 ft | 443 kts | 37° |
| 2026-05-07 16:39 | 52.99087 | 1.76674 | 37022 ft | 443 kts | 37° |
| 2026-05-07 16:39 | 53.01564 | 1.79651 | 37105 ft | 447 kts | 37° |
| 2026-05-07 16:40 | 53.06650 | 1.85780 | 37107 ft | 454 kts | 37° |
| 2026-05-07 16:40 | 53.11771 | 1.91973 | 37106 ft | 455 kts | 37° |
| 2026-05-07 16:41 | 53.16897 | 1.98186 | 37106 ft | 456 kts | 37° |
| 2026-05-07 16:41 | 53.22024 | 2.04439 | 37105 ft | 455 kts | 37° |
| 2026-05-07 16:42 | 53.27140 | 2.10684 | 37124 ft | 455 kts | 36° |
| 2026-05-07 16:42 | 53.32368 | 2.16678 | 37135 ft | 455 kts | 34° |
| 2026-05-07 16:43 | 53.37651 | 2.22551 | 37134 ft | 455 kts | 34° |
| 2026-05-07 16:43 | 53.42881 | 2.28451 | 37137 ft | 455 kts | 35° |
| 2026-05-07 16:44 | 53.48098 | 2.34439 | 37141 ft | 455 kts | 36° |
| 2026-05-07 16:44 | 53.53245 | 2.40705 | 37138 ft | 455 kts | 38° |
| 2026-05-07 16:45 | 53.58248 | 2.47129 | 37141 ft | 455 kts | 38° |
| 2026-05-07 16:45 | 53.63281 | 2.53590 | 37138 ft | 455 kts | 38° |
| 2026-05-07 16:46 | 53.68348 | 2.60021 | 37138 ft | 455 kts | 38° |
| 2026-05-07 16:46 | 53.73417 | 2.66431 | 37143 ft | 454 kts | 38° |
| 2026-05-07 16:47 | 53.78458 | 2.72841 | 37150 ft | 454 kts | 38° |
| 2026-05-07 16:47 | 53.83516 | 2.79291 | 37147 ft | 454 kts | 38° |
| 2026-05-07 16:48 | 53.88558 | 2.85762 | 37150 ft | 454 kts | 38° |
| 2026-05-07 16:48 | 53.93560 | 2.92214 | 37152 ft | 454 kts | 38° |
| 2026-05-07 16:49 | 53.98591 | 2.98714 | 37151 ft | 454 kts | 38° |
| 2026-05-07 16:49 | 54.03632 | 3.05220 | 37145 ft | 454 kts | 38° |
| 2026-05-07 16:50 | 54.08664 | 3.11744 | 37138 ft | 454 kts | 38° |
| 2026-05-07 16:50 | 54.13685 | 3.18291 | 37136 ft | 454 kts | 38° |
| 2026-05-07 16:51 | 54.18664 | 3.24805 | 37146 ft | 454 kts | 38° |
| 2026-05-07 16:51 | 54.23674 | 3.31365 | 37143 ft | 454 kts | 38° |
| 2026-05-07 16:52 | 54.28690 | 3.37949 | 37144 ft | 454 kts | 38° |
| 2026-05-07 16:52 | 54.33695 | 3.44535 | 37148 ft | 454 kts | 38° |
| 2026-05-07 16:53 | 54.38691 | 3.51145 | 37149 ft | 454 kts | 38° |
| 2026-05-07 16:53 | 54.43666 | 3.57744 | 37145 ft | 454 kts | 38° |
| 2026-05-07 16:54 | 54.48662 | 3.64387 | 37146 ft | 454 kts | 38° |
| 2026-05-07 16:54 | 54.53646 | 3.71062 | 37151 ft | 454 kts | 38° |
| 2026-05-07 16:55 | 54.58631 | 3.77753 | 37140 ft | 454 kts | 38° |
| 2026-05-07 16:55 | 54.63581 | 3.84428 | 37149 ft | 454 kts | 38° |
| 2026-05-07 16:56 | 54.68556 | 3.91133 | 37149 ft | 453 kts | 38° |
| 2026-05-07 16:56 | 54.76015 | 4.01217 | 37151 ft | 453 kts | 38° |
| 2026-05-07 16:57 | 54.80988 | 4.07960 | 37159 ft | 454 kts | 38° |
| 2026-05-07 16:57 | 54.85935 | 4.14775 | 37150 ft | 453 kts | 42° |
| 2026-05-07 16:58 | 54.90276 | 4.22679 | 37154 ft | 453 kts | 48° |
| 2026-05-07 16:58 | 54.94535 | 4.30754 | 37155 ft | 453 kts | 48° |
| 2026-05-07 16:59 | 54.98774 | 4.38786 | 37151 ft | 453 kts | 47° |
| 2026-05-07 16:59 | 55.03035 | 4.46888 | 37149 ft | 453 kts | 47° |
| 2026-05-07 17:00 | 55.07299 | 4.55025 | 37154 ft | 453 kts | 48° |
| 2026-05-07 17:00 | 55.11555 | 4.63176 | 37156 ft | 453 kts | 48° |
| 2026-05-07 17:01 | 55.15796 | 4.71331 | 37157 ft | 453 kts | 48° |
| 2026-05-07 17:01 | 55.20008 | 4.79456 | 37161 ft | 453 kts | 48° |
| 2026-05-07 17:02 | 55.24231 | 4.87661 | 37157 ft | 454 kts | 48° |
| 2026-05-07 17:02 | 55.28461 | 4.95889 | 37159 ft | 454 kts | 48° |
| 2026-05-07 17:03 | 55.32383 | 5.04557 | 37155 ft | 454 kts | 55° |
| 2026-05-07 17:03 | 55.35985 | 5.13671 | 37156 ft | 454 kts | 55° |
| 2026-05-07 17:04 | 55.39597 | 5.22792 | 37158 ft | 454 kts | 55° |
| 2026-05-07 17:04 | 55.43192 | 5.31939 | 37161 ft | 454 kts | 55° |
| 2026-05-07 17:05 | 55.46772 | 5.41046 | 37153 ft | 455 kts | 55° |
| 2026-05-07 17:05 | 55.50368 | 5.50236 | 37159 ft | 455 kts | 55° |
| 2026-05-07 17:06 | 55.53958 | 5.59457 | 37148 ft | 455 kts | 55° |
| 2026-05-07 17:06 | 55.57546 | 5.68701 | 37159 ft | 455 kts | 55° |
| 2026-05-07 17:07 | 55.61120 | 5.77951 | 37157 ft | 455 kts | 56° |
| 2026-05-07 17:07 | 55.64650 | 5.87150 | 37166 ft | 455 kts | 56° |
| 2026-05-07 17:08 | 55.68212 | 5.96456 | 37156 ft | 455 kts | 56° |
| 2026-05-07 17:08 | 55.71755 | 6.05724 | 37155 ft | 456 kts | 56° |
| 2026-05-07 17:09 | 55.75317 | 6.15067 | 37156 ft | 456 kts | 56° |
| 2026-05-07 17:09 | 55.78863 | 6.24411 | 37153 ft | 456 kts | 56° |
| 2026-05-07 17:10 | 55.82392 | 6.33776 | 37157 ft | 456 kts | 56° |
| 2026-05-07 17:10 | 55.85920 | 6.43156 | 37159 ft | 456 kts | 56° |
| 2026-05-07 17:11 | 55.89445 | 6.52547 | 37159 ft | 456 kts | 56° |
| 2026-05-07 17:11 | 55.92961 | 6.61962 | 37160 ft | 456 kts | 56° |
| 2026-05-07 17:12 | 55.96445 | 6.71321 | 37154 ft | 455 kts | 56° |
| 2026-05-07 17:12 | 55.99941 | 6.80761 | 37157 ft | 455 kts | 56° |
| 2026-05-07 17:13 | 56.02866 | 6.88669 | 37156 ft | 455 kts | 56° |
| 2026-05-07 17:13 | 56.06907 | 6.99666 | 37159 ft | 455 kts | 56° |
| 2026-05-07 17:14 | 56.09812 | 7.07610 | 37163 ft | 455 kts | 56° |
| 2026-05-07 17:14 | 56.13275 | 7.17091 | 37160 ft | 455 kts | 56° |
| 2026-05-07 17:15 | 56.16737 | 7.26613 | 37158 ft | 456 kts | 56° |
| 2026-05-07 17:15 | 56.20192 | 7.36149 | 37154 ft | 456 kts | 56° |
| 2026-05-07 17:16 | 56.23646 | 7.45709 | 37148 ft | 456 kts | 56° |
| 2026-05-07 17:16 | 56.27074 | 7.55251 | 37154 ft | 456 kts | 57° |
| 2026-05-07 17:17 | 56.30510 | 7.64861 | 37153 ft | 456 kts | 57° |
| 2026-05-07 17:17 | 56.33940 | 7.74471 | 37160 ft | 456 kts | 57° |
| 2026-05-07 17:18 | 56.37355 | 7.84112 | 37154 ft | 456 kts | 57° |
| 2026-05-07 17:18 | 56.40769 | 7.93783 | 37156 ft | 457 kts | 57° |
| 2026-05-07 17:19 | 56.44183 | 8.03464 | 37150 ft | 457 kts | 57° |
| 2026-05-07 17:19 | 56.47589 | 8.13170 | 37148 ft | 457 kts | 57° |
| 2026-05-07 17:20 | 56.50996 | 8.22897 | 37150 ft | 457 kts | 57° |
| 2026-05-07 17:20 | 56.54383 | 8.32638 | 37151 ft | 457 kts | 57° |
| 2026-05-07 17:21 | 56.57742 | 8.42337 | 37151 ft | 457 kts | 57° |
| 2026-05-07 17:21 | 56.61119 | 8.52129 | 37146 ft | 458 kts | 57° |
| 2026-05-07 17:22 | 56.64492 | 8.61952 | 37153 ft | 458 kts | 57° |
| 2026-05-07 17:22 | 56.67856 | 8.71786 | 37145 ft | 458 kts | 57° |
| 2026-05-07 17:23 | 56.71218 | 8.81642 | 37142 ft | 458 kts | 57° |
| 2026-05-07 17:23 | 56.74576 | 8.91508 | 37136 ft | 458 kts | 57° |
| 2026-05-07 17:24 | 56.77925 | 9.01399 | 37138 ft | 458 kts | 57° |
| 2026-05-07 17:24 | 56.81261 | 9.11305 | 37146 ft | 458 kts | 57° |
| 2026-05-07 17:25 | 56.84589 | 9.21236 | 37138 ft | 459 kts | 57° |
| 2026-05-07 17:25 | 56.87919 | 9.31203 | 37135 ft | 459 kts | 57° |
| 2026-05-07 17:26 | 56.91220 | 9.41119 | 37135 ft | 459 kts | 58° |
| 2026-05-07 17:26 | 56.94527 | 9.51114 | 37135 ft | 459 kts | 58° |
| 2026-05-07 17:27 | 56.97839 | 9.61153 | 36812 ft | 458 kts | 58° |
| 2026-05-07 17:27 | 56.99484 | 9.66155 | 36514 ft | 457 kts | 58° |
| 2026-05-07 17:27 | 57.01125 | 9.71155 | 35804 ft | 459 kts | 57° |
| 2026-05-07 17:28 | 57.02775 | 9.76196 | 35066 ft | 461 kts | 57° |
| 2026-05-07 17:28 | 57.04405 | 9.81185 | 34297 ft | 463 kts | 57° |
| 2026-05-07 17:28 | 57.06065 | 9.86265 | 33318 ft | 466 kts | 57° |
| 2026-05-07 17:28 | 57.07718 | 9.91349 | 32857 ft | 458 kts | 57° |
| 2026-05-07 17:29 | 57.09342 | 9.96372 | 32301 ft | 454 kts | 57° |
| 2026-05-07 17:29 | 57.10831 | 10.01463 | 31787 ft | 451 kts | 64° |
| 2026-05-07 17:29 | 57.12087 | 10.06729 | 31257 ft | 448 kts | 65° |
| 2026-05-07 17:29 | 57.13332 | 10.11967 | 30728 ft | 444 kts | 65° |
| 2026-05-07 17:30 | 57.14563 | 10.17154 | 30206 ft | 441 kts | 65° |
| 2026-05-07 17:30 | 57.15786 | 10.22320 | 29634 ft | 437 kts | 65° |
| 2026-05-07 17:30 | 57.16994 | 10.27438 | 29135 ft | 432 kts | 65° |
| 2026-05-07 17:30 | 57.18183 | 10.32493 | 28623 ft | 428 kts | 65° |
| 2026-05-07 17:31 | 57.19361 | 10.37504 | 28116 ft | 424 kts | 65° |
| 2026-05-07 17:31 | 57.20529 | 10.42479 | 27631 ft | 420 kts | 65° |
| 2026-05-07 17:31 | 57.21681 | 10.47401 | 27160 ft | 417 kts | 65° |
| 2026-05-07 17:31 | 57.22824 | 10.52313 | 26679 ft | 415 kts | 65° |
| 2026-05-07 17:32 | 57.23959 | 10.57201 | 26229 ft | 413 kts | 65° |
| 2026-05-07 17:32 | 57.25088 | 10.62068 | 25769 ft | 411 kts | 65° |
| 2026-05-07 17:32 | 57.26209 | 10.66909 | 25319 ft | 409 kts | 65° |
| 2026-05-07 17:32 | 57.27326 | 10.71726 | 24887 ft | 407 kts | 65° |
| 2026-05-07 17:33 | 57.28439 | 10.76539 | 24453 ft | 406 kts | 65° |
| 2026-05-07 17:33 | 57.29545 | 10.81349 | 24002 ft | 405 kts | 65° |
| 2026-05-07 17:33 | 57.30631 | 10.86090 | 23552 ft | 405 kts | 65° |
| 2026-05-07 17:33 | 57.31724 | 10.90881 | 23078 ft | 402 kts | 65° |
| 2026-05-07 17:34 | 57.32806 | 10.95634 | 22637 ft | 399 kts | 65° |
| 2026-05-07 17:34 | 57.33880 | 11.00347 | 22182 ft | 396 kts | 65° |
| 2026-05-07 17:34 | 57.34949 | 11.05040 | 21723 ft | 394 kts | 65° |
| 2026-05-07 17:34 | 57.36011 | 11.09711 | 21262 ft | 391 kts | 66° |
| 2026-05-07 17:35 | 57.37061 | 11.14349 | 20794 ft | 389 kts | 66° |
| 2026-05-07 17:35 | 57.38103 | 11.18958 | 20306 ft | 387 kts | 66° |
| 2026-05-07 17:35 | 57.39139 | 11.23546 | 19840 ft | 384 kts | 66° |
| 2026-05-07 17:35 | 57.40166 | 11.28118 | 19368 ft | 382 kts | 66° |
| 2026-05-07 17:36 | 57.41179 | 11.32660 | 18887 ft | 380 kts | 66° |
| 2026-05-07 17:36 | 57.42176 | 11.37140 | 18419 ft | 378 kts | 66° |
| 2026-05-07 17:36 | 57.43182 | 11.41654 | 17895 ft | 376 kts | 66° |
| 2026-05-07 17:36 | 57.44176 | 11.46109 | 17430 ft | 372 kts | 66° |
| 2026-05-07 17:37 | 57.45159 | 11.50517 | 16953 ft | 368 kts | 66° |
| 2026-05-07 17:37 | 57.46135 | 11.54906 | 16489 ft | 365 kts | 66° |
| 2026-05-07 17:37 | 57.47099 | 11.59245 | 16011 ft | 362 kts | 66° |
| 2026-05-07 17:37 | 57.48053 | 11.63552 | 15557 ft | 359 kts | 66° |
| 2026-05-07 17:38 | 57.49003 | 11.67823 | 15061 ft | 357 kts | 65° |
| 2026-05-07 17:38 | 57.50345 | 11.71744 | 14306 ft | 360 kts | 45° |
| 2026-05-07 17:38 | 57.52177 | 11.74898 | 13823 ft | 356 kts | 40° |
| 2026-05-07 17:38 | 57.54003 | 11.77915 | 13335 ft | 352 kts | 40° |
| 2026-05-07 17:39 | 57.55818 | 11.80916 | 13137 ft | 340 kts | 40° |
| 2026-05-07 17:39 | 57.57536 | 11.83756 | 12996 ft | 326 kts | 40° |
| 2026-05-07 17:39 | 57.59200 | 11.86508 | 12617 ft | 317 kts | 40° |
| 2026-05-07 17:39 | 57.60836 | 11.89215 | 12311 ft | 312 kts | 40° |
| 2026-05-07 17:40 | 57.62455 | 11.91903 | 11952 ft | 310 kts | 40° |
| 2026-05-07 17:40 | 57.64062 | 11.94579 | 11601 ft | 308 kts | 40° |
| 2026-05-07 17:40 | 57.65664 | 11.97244 | 11174 ft | 304 kts | 40° |
| 2026-05-07 17:40 | 57.67222 | 11.99838 | 10529 ft | 302 kts | 40° |
| 2026-05-07 17:41 | 57.68787 | 12.02445 | 10001 ft | 302 kts | 40° |
| 2026-05-07 17:41 | 57.70353 | 12.05053 | 9738 ft | 296 kts | 40° |
| 2026-05-07 17:41 | 57.71861 | 12.07567 | 9508 ft | 290 kts | 40° |
| 2026-05-07 17:41 | 57.73364 | 12.10081 | 9190 ft | 287 kts | 41° |
| 2026-05-07 17:42 | 57.74835 | 12.12549 | 8888 ft | 285 kts | 40° |
| 2026-05-07 17:42 | 57.76305 | 12.15018 | 8643 ft | 280 kts | 41° |
| 2026-05-07 17:42 | 57.77736 | 12.17423 | 8348 ft | 277 kts | 41° |
| 2026-05-07 17:42 | 57.79164 | 12.19822 | 7862 ft | 274 kts | 41° |
| 2026-05-07 17:43 | 57.80615 | 12.22149 | 7279 ft | 272 kts | 35° |
| 2026-05-07 17:43 | 57.82245 | 12.23929 | 6724 ft | 269 kts | 28° |
| 2026-05-07 17:43 | 57.83891 | 12.25547 | 6139 ft | 268 kts | 28° |
| 2026-05-07 17:43 | 57.85398 | 12.27581 | 5700 ft | 266 kts | 47° |
| 2026-05-07 17:44 | 57.86426 | 12.30400 | 5522 ft | 257 kts | 67° |
| 2026-05-07 17:44 | 57.86894 | 12.33572 | 5380 ft | 247 kts | 86° |
| 2026-05-07 17:44 | 57.86835 | 12.36758 | 5128 ft | 241 kts | 106° |
| 2026-05-07 17:44 | 57.86086 | 12.39486 | 4821 ft | 238 kts | 134° |
| 2026-05-07 17:45 | 57.84742 | 12.41146 | 4661 ft | 228 kts | 162° |
| 2026-05-07 17:45 | 57.83210 | 12.41536 | 4534 ft | 217 kts | 177° |
| 2026-05-07 17:45 | 57.81698 | 12.41605 | 4044 ft | 216 kts | 186° |
| 2026-05-07 17:45 | 57.80272 | 12.40804 | 3580 ft | 216 kts | 205° |
| 2026-05-07 17:46 | 57.78916 | 12.39560 | 3150 ft | 213 kts | 207° |
| 2026-05-07 17:46 | 57.77629 | 12.38358 | 2964 ft | 201 kts | 207° |
| 2026-05-07 17:46 | 57.76403 | 12.37229 | 2559 ft | 197 kts | 207° |
| 2026-05-07 17:46 | 57.75188 | 12.36115 | 2247 ft | 191 kts | 208° |
| 2026-05-07 17:47 | 57.74033 | 12.35060 | 1981 ft | 177 kts | 209° |
| 2026-05-07 17:47 | 57.72999 | 12.34118 | 1750 ft | 157 kts | 210° |
| 2026-05-07 17:47 | 57.72046 | 12.33245 | 1540 ft | 149 kts | 209° |
| 2026-05-07 17:47 | 57.71124 | 12.32401 | 1333 ft | 147 kts | 209° |
| 2026-05-07 17:48 | 57.70221 | 12.31576 | 1127 ft | 145 kts | 211° |
| 2026-05-07 17:48 | 57.69314 | 12.30748 | 932 ft | 144 kts | 211° |
| 2026-05-07 17:48 | 57.68421 | 12.29935 | 753 ft | 142 kts | 210° |
| 2026-05-07 17:48 | 57.67538 | 12.29118 | 560 ft | 140 kts | 209° |
| 2026-05-07 17:49 | 57.66758 | 12.28402 | 516 ft | 95 kts | 204° |
| 2026-05-07 17:49 | 57.66362 | 12.28043 | 517 ft | 48 kts | 207° |
| 2026-05-07 17:49 | 57.66176 | 12.27940 | 513 ft | 12 kts | 161° |
| 2026-05-07 17:49 | 57.66126 | 12.28025 | 513 ft | 9 kts | 112° |
| 2026-05-07 17:50 | 57.66112 | 12.28092 | 511 ft | 8 kts | 108° |
| 2026-05-07 17:50 | 57.66143 | 12.28176 | 513 ft | 8 kts | 38° |
| 2026-05-07 17:50 | 57.66177 | 12.28224 | 512 ft | 3 kts | 33° |
| 2026-05-07 17:50 | 57.66192 | 12.28241 | 513 ft | 4 kts | 28° |
| 2026-05-07 17:51 | 57.66243 | 12.28289 | 514 ft | 12 kts | 26° |
| 2026-05-07 17:51 | 57.66306 | 12.28347 | 514 ft | 6 kts | 26° |
| 2026-05-07 17:51 | 57.66333 | 12.28371 | 516 ft | 4 kts | 26° |
| 2026-05-07 17:51 | 57.66364 | 12.28400 | 516 ft | 7 kts | 26° |
| 2026-05-07 17:52 | 57.66421 | 12.28451 | 516 ft | 12 kts | 25° |
| 2026-05-07 17:52 | 57.66515 | 12.28536 | 514 ft | 15 kts | 26° |
| 2026-05-07 17:52 | 57.66624 | 12.28636 | 511 ft | 21 kts | 26° |
| 2026-05-07 17:52 | 57.66640 | 12.28652 | 511 ft | 0 kts | 26° |
| 2026-05-07 17:53 | 57.66662 | 12.28679 | 511 ft | 10 kts | 48° |
| 2026-05-07 17:54 | 57.66642 | 12.28841 | 512 ft | 15 kts | 117° |
| 2026-05-07 17:54 | 57.66626 | 12.28999 | 516 ft | 12 kts | 42° |
| 2026-05-07 17:54 | 57.66646 | 12.29076 | 521 ft | 3 kts | 107° |
| 2026-05-07 17:54 | 57.66642 | 12.29095 | 522 ft | 2 kts | 112° |
| 2026-05-07 17:55 | 57.66629 | 12.29147 | 523 ft | 3 kts | 115° |
| 2026-05-07 17:55 | 57.66623 | 12.29172 | 523 ft | 0 kts | 115° |
| 2026-05-07 17:55 | 57.66621 | 12.29178 | 523 ft | 0 kts | 115° |